Time;durP1;ratioP1;P1;durP2;ratioP2;P2;SDS_P1;SDS_P2;PMS_P1;PMS_P2;Temp;Humidity;BMP_temperature;BMP_pressure;BME280_temperature;BME280_humidity;BME280_pressure;Samples;Min_cycle;Max_cycle;Signal;HPM_P1;HPM_P2
2023/09/22 00:00:14;;;;;;;12.20;3.08;;;;;;;26.91;44.62;98898.38;4481675;32;33665;-64
2023/09/22 00:02:46;;;;;;;8.77;3.22;;;;;;;26.92;44.63;98900.00;4481558;32;34875;-64
2023/09/22 00:05:14;;;;;;;8.25;2.55;;;;;;;26.91;44.64;98890.97;4468933;32;33335;-63
2023/09/22 00:07:43;;;;;;;7.82;2.75;;;;;;;26.91;44.64;98890.16;4482766;32;33680;-64
2023/09/22 00:10:12;;;;;;;4.70;2.80;;;;;;;26.91;44.64;98887.41;4481356;32;33912;-64
2023/09/22 00:12:41;;;;;;;5.53;2.42;;;;;;;26.90;44.62;98885.75;4482749;32;33648;-65
2023/09/22 00:15:10;;;;;;;5.45;2.62;;;;;;;26.90;44.67;98886.56;4482771;32;33581;-65
2023/09/22 00:17:38;;;;;;;8.55;2.30;;;;;;;26.89;44.67;98884.94;4482468;32;34705;-63
2023/09/22 00:20:13;;;;;;;7.47;2.85;;;;;;;26.89;44.61;98890.41;4482584;32;34768;-66
2023/09/22 00:22:43;;;;;;;7.45;2.85;;;;;;;26.90;44.57;98899.44;4481304;32;34569;-64
2023/09/22 00:25:10;;;;;;;8.25;2.92;;;;;;;26.90;44.43;98896.69;4468497;32;33953;-65
2023/09/22 00:27:38;;;;;;;9.80;2.95;;;;;;;26.89;44.37;98895.87;4482508;32;34753;-64
2023/09/22 00:30:09;;;;;;;9.13;3.17;;;;;;;26.88;44.39;98893.41;4482189;32;33716;-64
2023/09/22 00:32:38;;;;;;;7.05;2.53;;;;;;;26.89;44.39;98889.59;4482358;32;34167;-64
2023/09/22 00:35:08;;;;;;;8.57;3.00;;;;;;;26.88;44.43;98890.69;4481963;32;33171;-63
2023/09/22 00:37:36;;;;;;;6.37;3.12;;;;;;;26.89;44.44;98886.84;4483340;32;34097;-64
2023/09/22 00:40:04;;;;;;;7.12;2.83;;;;;;;26.88;44.50;98883.28;4485039;32;33876;-64
2023/09/22 00:42:32;;;;;;;6.47;2.90;;;;;;;26.87;44.53;98886.31;4484706;32;33798;-64
2023/09/22 00:44:59;;;;;;;5.87;2.50;;;;;;;26.87;44.51;98878.09;4484562;32;34873;-64
2023/09/22 00:47:27;;;;;;;8.65;3.25;;;;;;;26.87;44.52;98889.03;4484910;32;34668;-65
2023/09/22 00:49:55;;;;;;;5.53;2.50;;;;;;;26.87;44.55;98880.84;4483300;32;34760;-64
2023/09/22 00:52:23;;;;;;;6.60;2.37;;;;;;;26.87;44.44;98880.84;4470359;32;34709;-64
2023/09/22 00:54:51;;;;;;;7.15;2.37;;;;;;;26.86;44.42;98890.97;4483380;32;33821;-65
2023/09/22 00:57:19;;;;;;;6.65;3.08;;;;;;;26.85;44.43;98886.56;4484673;32;33960;-64
2023/09/22 00:59:47;;;;;;;7.22;2.87;;;;;;;26.85;44.44;98888.47;4484540;32;33977;-64
2023/09/22 01:02:14;;;;;;;6.68;2.65;;;;;;;26.86;44.38;98890.13;4483319;32;35408;-64
2023/09/22 01:04:42;;;;;;;7.57;2.22;;;;;;;26.85;44.41;98896.69;4484595;32;33596;-64
2023/09/22 01:07:10;;;;;;;4.95;2.08;;;;;;;26.85;44.35;98893.94;4484367;32;34812;-64
2023/09/22 01:09:37;;;;;;;6.47;2.90;;;;;;;26.85;44.32;98893.94;4483253;32;33540;-64
2023/09/22 01:12:05;;;;;;;6.47;2.90;;;;;;;26.84;44.35;98897.78;4484613;32;33855;-64
2023/09/22 01:14:33;;;;;;;7.10;3.03;;;;;;;26.83;44.35;98894.22;4484365;32;33449;-63
2023/09/22 01:17:00;;;;;;;8.98;3.80;;;;;;;26.83;44.31;98886.03;4483230;32;33843;-65
2023/09/22 01:19:30;;;;;;;7.37;2.50;;;;;;;26.83;44.33;98887.94;4484583;32;34415;-65
2023/09/22 01:21:57;;;;;;;7.07;2.90;;;;;;;26.83;44.30;98891.50;4484377;32;33806;-65
2023/09/22 01:24:25;;;;;;;5.53;2.50;;;;;;;26.82;44.28;98889.84;4484452;32;33579;-64
2023/09/22 01:26:53;;;;;;;6.30;2.80;;;;;;;26.82;44.32;98894.50;4470309;32;34396;-64
2023/09/22 01:29:21;;;;;;;5.75;2.95;;;;;;;26.82;44.37;98889.03;4484394;32;34673;-64
2023/09/22 01:31:49;;;;;;;7.43;2.80;;;;;;;26.80;44.34;98880.25;4484434;32;34142;-64
2023/09/22 01:34:16;;;;;;;7.70;2.87;;;;;;;26.81;44.37;98881.91;4484439;32;33183;-65
2023/09/22 01:36:46;;;;;;;9.35;2.95;;;;;;;26.80;44.39;98883.00;4484256;32;34003;-64
2023/09/22 01:39:16;;;;;;;7.97;3.35;;;;;;;26.79;44.39;98882.19;4484347;32;33974;-63
2023/09/22 01:41:44;;;;;;;8.35;3.03;;;;;;;26.80;44.41;98885.72;4484075;32;34296;-66
2023/09/22 01:44:12;;;;;;;6.62;2.87;;;;;;;26.79;44.52;98884.91;4483104;32;33347;-65
2023/09/22 01:46:40;;;;;;;7.68;3.00;;;;;;;26.78;44.52;98888.75;4483595;32;33705;-64
2023/09/22 01:49:09;;;;;;;5.43;2.83;;;;;;;26.79;44.53;98890.38;4483823;32;34142;-65
2023/09/22 01:51:38;;;;;;;9.75;2.95;;;;;;;26.79;44.48;98887.66;4484362;32;34544;-65
2023/09/22 01:54:06;;;;;;;6.85;2.70;;;;;;;26.79;44.61;98897.78;4483088;32;34344;-65
2023/09/22 01:56:34;;;;;;;8.52;2.78;;;;;;;26.79;44.51;98895.87;4484090;32;33812;-65
2023/09/22 01:59:02;;;;;;;7.25;2.75;;;;;;;26.78;44.45;98894.22;4484352;32;33657;-65
2023/09/22 02:01:29;;;;;;;5.90;2.70;;;;;;;26.77;44.41;98889.03;4484308;32;34491;-65
2023/09/22 02:03:57;;;;;;;6.95;3.10;;;;;;;26.77;44.39;98889.84;4484042;32;33611;-65
2023/09/22 02:06:25;;;;;;;5.90;2.92;;;;;;;26.77;44.42;98889.03;4484059;32;33502;-65
2023/09/22 02:08:54;;;;;;;5.40;2.80;;;;;;;26.75;44.49;98880.25;4484204;32;34754;-65
2023/09/22 02:11:21;;;;;;;6.47;2.70;;;;;;;26.76;44.44;98887.38;4483978;32;34114;-65
2023/09/22 02:13:49;;;;;;;8.35;3.40;;;;;;;26.75;44.37;98885.72;4484225;32;33254;-65
2023/09/22 02:16:17;;;;;;;5.60;2.45;;;;;;;26.75;44.39;98888.47;4482873;32;33556;-67
2023/09/22 02:18:44;;;;;;;7.57;2.90;;;;;;;26.75;44.43;98888.47;4483917;32;34759;-66
2023/09/22 02:21:14;;;;;;;6.50;2.85;;;;;;;26.73;44.38;98894.22;4482812;32;34503;-66
2023/09/22 02:23:41;;;;;;;6.00;2.80;;;;;;;26.73;44.38;98894.22;4484117;32;32815;-66
2023/09/22 02:26:09;;;;;;;6.40;2.92;;;;;;;26.74;44.38;98886.81;4483886;32;33394;-64
2023/09/22 02:28:37;;;;;;;7.80;2.90;;;;;;;26.73;44.48;98885.19;4484054;32;34052;-64
2023/09/22 02:31:04;;;;;;;8.27;3.20;;;;;;;26.73;44.49;98882.44;4484267;32;33398;-65
2023/09/22 02:33:32;;;;;;;7.25;2.92;;;;;;;26.71;44.48;98880.78;4483896;32;34501;-65
2023/09/22 02:36:04;;;;;;;5.85;2.85;;;;;;;26.71;44.46;98875.31;4483945;32;33656;-65
2023/09/22 02:38:32;;;;;;;5.12;2.87;;;;;;;26.71;44.52;98880.78;4482572;32;34034;-65
2023/09/22 02:41:00;;;;;;;9.52;3.15;;;;;;;26.71;44.54;98869.84;4483772;32;33967;-65
2023/09/22 02:43:28;;;;;;;10.15;3.20;;;;;;;26.72;44.46;98867.94;4484110;32;34438;-65
2023/09/22 02:46:16;;;;;;;4.80;2.62;;;;;;;26.70;44.42;98870.94;4471547;32;33914;-65
2023/09/22 02:48:46;;;;;;;9.45;2.92;;;;;;;26.70;44.39;98864.66;4483764;32;33903;-65
2023/09/22 02:51:14;;;;;;;10.60;3.22;;;;;;;26.69;44.42;98863.81;4483662;32;33829;-65
2023/09/22 02:53:41;;;;;;;7.80;3.28;;;;;;;26.71;44.40;98860.81;4482618;32;33563;-66
2023/09/22 02:56:09;;;;;;;5.18;2.50;;;;;;;26.71;44.40;98858.06;4483809;32;33871;-65
2023/09/22 02:58:37;;;;;;;10.63;2.92;;;;;;;26.69;44.45;98863.81;4482252;32;33994;-65
2023/09/22 03:01:08;;;;;;;7.65;3.05;;;;;;;26.68;44.42;98864.94;4482375;32;33850;-65
2023/09/22 03:03:42;;;;;;;7.70;3.00;;;;;;;26.68;44.41;98855.91;4482538;32;32634;-65
2023/09/22 03:06:11;;;;;;;8.15;2.95;;;;;;;26.68;44.43;98861.38;4483780;32;33427;-64
2023/09/22 03:08:39;;;;;;;6.78;2.70;;;;;;;26.69;44.42;98863.00;4483611;32;33793;-65
2023/09/22 03:11:07;;;;;;;8.45;2.78;;;;;;;26.67;44.48;98855.09;4456677;32;34006;-66
2023/09/22 03:13:34;;;;;;;7.82;3.20;;;;;;;26.68;44.45;98873.13;4483621;32;33198;-65
2023/09/22 03:16:02;;;;;;;9.10;3.15;;;;;;;26.67;44.46;98862.44;4482352;32;33797;-64
2023/09/22 03:18:30;;;;;;;6.03;2.55;;;;;;;26.67;44.44;98860.56;4483291;32;34766;-65
2023/09/22 03:20:57;;;;;;;5.60;3.15;;;;;;;26.67;44.50;98855.09;4456578;32;34660;-65
2023/09/22 03:23:25;;;;;;;9.40;3.35;;;;;;;26.66;44.47;98850.69;4483745;32;33691;-65
2023/09/22 03:25:53;;;;;;;7.97;3.08;;;;;;;26.66;44.44;98858.88;4483262;32;34781;-65
2023/09/22 03:28:21;;;;;;;7.57;3.03;;;;;;;26.66;44.43;98858.06;4483438;32;33740;-65
2023/09/22 03:30:49;;;;;;;5.10;2.62;;;;;;;26.65;44.44;98856.44;4483353;32;35148;-65
2023/09/22 03:33:17;;;;;;;7.90;2.70;;;;;;;26.65;44.43;98845.50;4482146;32;33308;-64
2023/09/22 03:35:46;;;;;;;5.40;2.78;;;;;;;26.63;44.44;98853.97;4483571;32;34707;-64
2023/09/22 03:38:15;;;;;;;6.28;2.80;;;;;;;26.64;44.44;98861.09;4483613;32;34052;-64
2023/09/22 03:40:43;;;;;;;9.07;3.40;;;;;;;26.64;44.41;98855.63;4483018;32;35277;-64
2023/09/22 03:43:11;;;;;;;6.85;3.55;;;;;;;26.65;44.46;98850.97;4483469;32;32994;-65
2023/09/22 03:45:39;;;;;;;8.15;3.15;;;;;;;26.62;44.44;98857.78;4469036;32;34772;-64
2023/09/22 03:48:08;;;;;;;7.87;3.08;;;;;;;26.60;44.52;98854.50;4482715;32;33396;-64
2023/09/22 03:50:36;;;;;;;6.47;3.72;;;;;;;26.59;44.51;98850.13;4482206;32;33817;-64
2023/09/22 03:53:03;;;;;;;7.55;3.65;;;;;;;26.59;44.52;98857.53;4483070;32;33580;-65
2023/09/22 03:55:32;;;;;;;7.00;3.17;;;;;;;26.59;44.53;98847.41;4482908;32;34634;-65
2023/09/22 03:58:00;;;;;;;8.70;3.37;;;;;;;26.58;44.53;98850.37;4483105;32;34134;-65
2023/09/22 04:00:28;;;;;;;7.82;3.50;;;;;;;26.58;44.49;98844.91;4483122;32;34531;-65
2023/09/22 04:02:56;;;;;;;7.03;2.80;;;;;;;26.55;44.58;98846.28;4482685;32;33286;-65
2023/09/22 04:05:24;;;;;;;6.47;3.10;;;;;;;26.55;44.62;98851.75;4482902;32;33821;-64
2023/09/22 04:07:54;;;;;;;7.15;3.25;;;;;;;26.54;44.64;98852.84;4482751;32;33757;-64
2023/09/22 04:10:22;;;;;;;;;;;;;;;26.54;44.60;98852.84;4483906;32;34805;-65
2023/09/22 04:12:52;;;;;;;13.50;3.72;;;;;;;26.61;44.47;98856.13;4484158;32;33664;-64
2023/09/22 04:15:22;;;;;;;7.93;3.22;;;;;;;26.55;44.57;98856.41;4484728;32;34586;-65
2023/09/22 04:17:51;;;;;;;7.68;3.58;;;;;;;26.52;44.61;98851.47;4484879;32;34006;-65
2023/09/22 04:20:28;;;;;;;8.43;3.58;;;;;;;26.51;44.85;98852.56;4484865;32;34242;-65
2023/09/22 04:22:58;;;;;;;9.38;4.03;;;;;;;26.50;44.77;98859.97;4484683;32;33230;-65
2023/09/22 04:25:34;;;;;;;9.77;3.47;;;;;;;26.52;44.79;98859.69;4484880;32;33466;-64
2023/09/22 04:28:09;;;;;;;11.43;4.18;;;;;;;26.51;44.71;98856.13;4484622;32;34006;-65
2023/09/22 04:30:37;;;;;;;7.68;3.30;;;;;;;26.52;44.73;98860.50;4485108;32;34182;-65
2023/09/22 04:33:06;;;;;;;8.27;4.12;;;;;;;26.51;44.81;98863.50;4484131;32;31979;-65
2023/09/22 04:35:34;;;;;;;8.57;3.55;;;;;;;26.50;44.78;98854.47;4484495;32;33697;-65
2023/09/22 04:38:02;;;;;;;7.65;4.15;;;;;;;26.49;44.83;98869.25;4484726;32;34614;-65
2023/09/22 04:40:36;;;;;;;8.70;3.37;;;;;;;26.49;44.82;98869.25;4484839;32;34819;-66
2023/09/22 04:43:07;;;;;;;7.82;3.78;;;;;;;26.49;44.83;98872.00;4455569;32;33565;-65
2023/09/22 04:45:40;;;;;;;11.52;3.85;;;;;;;26.49;44.88;98869.25;4469055;32;33874;-66
2023/09/22 04:48:08;;;;;;;9.40;3.92;;;;;;;26.49;44.85;98869.25;4483285;32;33890;-65
2023/09/22 04:50:40;;;;;;;12.00;4.00;;;;;;;26.48;44.89;98881.28;4470168;32;34685;-65
2023/09/22 04:53:08;;;;;;;7.10;3.90;;;;;;;26.47;44.87;98879.63;4483018;32;33703;-65
2023/09/22 04:55:35;;;;;;;7.62;4.07;;;;;;;26.48;44.90;98884.00;4484092;32;34167;-65
2023/09/22 04:58:05;;;;;;;11.32;4.47;;;;;;;26.48;44.89;98884.00;4483004;32;33781;-65
2023/09/22 05:00:34;;;;;;;10.15;4.55;;;;;;;26.49;44.87;98880.19;4477878;32;33663;-65
2023/09/22 05:03:04;;;;;;;17.65;5.45;;;;;;;26.49;44.88;98877.47;4483515;32;34197;-68
2023/09/22 05:05:33;;;;;;;20.73;4.28;;;;;;;26.51;45.15;98888.13;4483797;32;34591;-66
2023/09/22 05:08:01;;;;;;;10.50;4.72;;;;;;;26.50;45.11;98887.31;4473523;32;34800;-66
2023/09/22 05:10:28;;;;;;;14.02;4.57;;;;;;;26.52;45.03;98889.78;4483690;32;34059;-66
2023/09/22 05:12:56;;;;;;;12.35;4.70;;;;;;;26.51;44.99;98888.13;4483909;32;34232;-66
2023/09/22 05:15:27;;;;;;;14.18;4.43;;;;;;;26.52;45.00;98897.97;4471054;32;34697;-65
2023/09/22 05:17:55;;;;;;;12.23;4.75;;;;;;;26.51;44.96;98899.06;4468537;32;33891;-65
2023/09/22 05:20:24;;;;;;;8.07;4.18;;;;;;;26.51;44.91;98899.91;4468559;32;34075;-66
2023/09/22 05:22:52;;;;;;;8.20;4.22;;;;;;;26.51;44.90;98894.41;4453439;32;34381;-65
2023/09/22 05:25:19;;;;;;;10.80;4.37;;;;;;;26.51;44.88;98893.59;4467337;32;33647;-65
2023/09/22 05:27:49;;;;;;;;;;;;;;;26.49;44.87;98888.41;4467689;32;34666;-65
2023/09/22 05:30:17;;;;;;;10.57;5.05;;;;;;;26.58;44.69;98892.28;4468478;32;34153;-66
2023/09/22 05:32:45;;;;;;;10.25;4.37;;;;;;;26.51;44.81;98888.94;4468633;32;33659;-66
2023/09/22 05:35:13;;;;;;;9.52;4.15;;;;;;;26.51;44.80;98879.94;4467691;32;33878;-66
2023/09/22 05:37:41;;;;;;;10.00;4.37;;;;;;;26.53;44.81;98875.81;4466717;32;35451;-66
2023/09/22 05:40:12;;;;;;;10.65;4.65;;;;;;;26.53;44.80;98886.75;4465390;32;33622;-65
2023/09/22 05:42:42;;;;;;;10.50;4.53;;;;;;;26.54;44.83;98882.94;4479869;32;33424;-65
2023/09/22 05:45:11;;;;;;;12.80;4.40;;;;;;;26.52;44.90;98879.66;4482443;32;33434;-65
2023/09/22 05:47:39;;;;;;;13.02;4.37;;;;;;;26.50;45.04;98879.09;4482502;32;33713;-66
2023/09/22 05:50:09;;;;;;;11.23;4.80;;;;;;;26.47;45.08;98885.09;4483089;32;33716;-65
2023/09/22 05:52:37;;;;;;;8.57;4.30;;;;;;;26.45;45.17;98888.13;4483104;32;34295;-65
2023/09/22 05:55:10;;;;;;;9.18;5.22;;;;;;;26.47;45.17;98892.50;4484248;32;34654;-66
2023/09/22 05:57:38;;;;;;;12.40;4.55;;;;;;;26.44;45.16;98883.75;4484112;32;34104;-65
2023/09/22 06:00:18;;;;;;;8.60;4.85;;;;;;;26.45;45.24;98895.50;4482978;32;34034;-65
2023/09/22 06:02:52;;;;;;;10.93;4.22;;;;;;;26.43;45.24;98887.53;4482958;32;34156;-65
2023/09/22 06:05:22;;;;;;;10.18;4.82;;;;;;;26.41;45.23;98897.09;4482874;32;34799;-65
2023/09/22 06:07:50;;;;;;;10.90;4.78;;;;;;;26.50;45.14;98897.44;4484057;32;33816;-65
2023/09/22 06:10:18;;;;;;;9.65;5.00;;;;;;;26.56;45.00;98904.56;4483924;32;34822;-65
2023/09/22 06:12:45;;;;;;;9.07;4.55;;;;;;;26.56;45.10;98904.56;4484147;32;34345;-65
2023/09/22 06:15:13;;;;;;;12.43;4.87;;;;;;;26.58;44.98;98900.47;4483233;32;34017;-65
2023/09/22 06:17:41;;;;;;;11.60;5.10;;;;;;;26.58;44.96;98905.94;4484009;32;33839;-65
2023/09/22 06:20:15;;;;;;;9.68;3.78;;;;;;;26.60;45.00;98909.22;4482865;32;33766;-65
2023/09/22 06:22:47;;;;;;;9.45;4.10;;;;;;;26.61;44.91;98910.03;4482776;32;33920;-65
2023/09/22 06:25:15;;;;;;;11.45;4.60;;;;;;;26.61;44.95;98910.03;4484016;32;33815;-66
2023/09/22 06:27:46;;;;;;;8.98;4.70;;;;;;;26.62;45.00;98904.28;4483948;32;33917;-66
2023/09/22 06:30:15;;;;;;;9.40;4.40;;;;;;;26.61;45.09;98916.34;4483922;32;33709;-66
2023/09/22 06:32:42;;;;;;;14.32;5.20;;;;;;;26.63;44.99;98907.88;4483715;32;34282;-66
2023/09/22 06:35:10;;;;;;;12.07;4.85;;;;;;;26.62;45.09;98915.25;4482958;32;34562;-65
2023/09/22 06:37:41;;;;;;;9.50;4.03;;;;;;;26.63;45.06;98913.34;4483847;32;33716;-65
2023/09/22 06:40:12;;;;;;;10.52;4.60;;;;;;;26.60;45.07;98919.34;4483972;32;34832;-65
2023/09/22 06:42:41;;;;;;;14.90;5.37;;;;;;;26.55;45.30;98911.94;4483842;32;34576;-65
2023/09/22 06:45:09;;;;;;;11.40;5.07;;;;;;;26.52;45.45;98920.69;4483886;32;34201;-65
2023/09/22 06:47:38;;;;;;;9.05;4.93;;;;;;;26.50;45.54;98925.59;4482855;32;33214;-65
2023/09/22 06:50:09;;;;;;;13.48;5.07;;;;;;;26.48;45.56;98925.03;4482459;32;34740;-65
2023/09/22 06:52:37;;;;;;;10.93;5.25;;;;;;;26.49;45.55;98923.12;4483902;32;34386;-65
2023/09/22 06:55:08;;;;;;;10.80;4.82;;;;;;;26.46;45.63;98927.22;4482539;32;33654;-65
2023/09/22 06:57:40;;;;;;;11.65;5.32;;;;;;;26.46;45.67;98927.22;4483607;32;33945;-65
2023/09/22 07:00:15;;;;;;;10.68;4.72;;;;;;;26.45;45.73;98917.38;4482490;32;33815;-66
2023/09/22 07:02:47;;;;;;;9.70;4.87;;;;;;;26.44;45.85;98940.38;4470417;32;33667;-66
2023/09/22 07:05:15;;;;;;;12.73;4.57;;;;;;;26.43;45.90;98931.31;4456748;32;33872;-66
2023/09/22 07:07:44;;;;;;;8.75;5.12;;;;;;;26.42;45.89;98946.06;4482470;32;33264;-66
2023/09/22 07:10:13;;;;;;;8.02;4.65;;;;;;;26.44;45.92;98943.09;4482228;32;34040;-67
2023/09/22 07:12:41;;;;;;;11.93;4.62;;;;;;;26.43;45.90;98938.69;4483638;32;34380;-66
2023/09/22 07:15:10;;;;;;;11.73;5.30;;;;;;;26.44;45.88;98946.66;4482357;32;34661;-66
2023/09/22 07:17:37;;;;;;;12.25;5.00;;;;;;;26.44;45.93;98943.91;4483379;32;34657;-66
2023/09/22 07:20:08;;;;;;;11.43;4.65;;;;;;;26.44;45.95;98941.19;4483533;32;34930;-66
2023/09/22 07:22:37;;;;;;;9.15;5.15;;;;;;;26.44;46.03;98941.19;4483481;32;33484;-66
2023/09/22 07:25:05;;;;;;;10.93;4.70;;;;;;;26.45;46.00;98934.63;4483249;32;34078;-66
2023/09/22 07:27:33;;;;;;;12.23;5.30;;;;;;;26.47;46.01;98937.06;4483410;32;34183;-66
2023/09/22 07:30:01;;;;;;;11.75;5.40;;;;;;;26.46;45.98;98932.72;4483343;32;34572;-68
2023/09/22 07:32:30;;;;;;;12.95;4.22;;;;;;;26.46;46.01;98946.38;4483327;32;34322;-67
2023/09/22 07:34:58;;;;;;;10.65;4.72;;;;;;;26.47;46.04;98939.81;4483315;32;34661;-66
2023/09/22 07:37:26;;;;;;;9.48;4.62;;;;;;;26.46;46.07;98949.13;4481930;32;34703;-67
2023/09/22 07:39:54;;;;;;;9.65;4.40;;;;;;;26.47;46.07;98953.50;4483235;32;34787;-67
2023/09/22 07:42:22;;;;;;;8.15;4.20;;;;;;;26.47;46.03;98947.19;4483144;32;33532;-67
2023/09/22 07:44:50;;;;;;;14.70;4.40;;;;;;;26.47;46.04;98964.44;4482087;32;32780;-67
2023/09/22 07:47:17;;;;;;;10.05;4.20;;;;;;;26.48;45.99;98968.00;4485142;32;34697;-67
2023/09/22 07:49:46;;;;;;;10.93;4.68;;;;;;;26.48;45.95;98968.81;4484881;32;34203;-66
2023/09/22 07:52:13;;;;;;;10.55;4.93;;;;;;;26.49;45.99;98966.88;4484978;32;33098;-66
2023/09/22 07:54:41;;;;;;;12.75;4.40;;;;;;;26.49;46.00;98970.47;4483874;32;33665;-66
2023/09/22 07:57:09;;;;;;;10.55;4.72;;;;;;;26.48;46.03;98968.81;4483887;32;33852;-67
2023/09/22 07:59:37;;;;;;;9.93;4.47;;;;;;;26.48;46.00;98968.81;4484889;32;34895;-66
2023/09/22 08:02:06;;;;;;;10.52;4.68;;;;;;;26.48;46.03;98960.59;4485053;32;33766;-66
2023/09/22 08:04:34;;;;;;;10.90;4.40;;;;;;;26.49;46.02;98966.88;4483734;32;33992;-66
2023/09/22 08:07:03;;;;;;;16.70;4.72;;;;;;;26.49;45.99;98961.41;4484891;32;34733;-66
2023/09/22 08:09:30;;;;;;;9.30;4.50;;;;;;;26.50;46.02;98966.66;4485184;32;33686;-67
2023/09/22 08:11:58;;;;;;;12.43;4.60;;;;;;;26.49;46.05;98962.28;4485030;32;33659;-67
2023/09/22 08:14:26;;;;;;;11.63;4.75;;;;;;;26.49;46.01;98973.22;4484769;32;33693;-67
2023/09/22 08:17:15;;;;;;;9.48;4.53;;;;;;;26.50;46.01;98972.13;4485037;32;34098;-66
2023/09/22 08:19:43;;;;;;;11.55;5.03;;;;;;;26.51;46.00;98976.50;4484786;32;34058;-66
2023/09/22 08:22:11;;;;;;;12.00;4.70;;;;;;;26.51;46.11;98976.50;4483920;32;33381;-67
2023/09/22 08:24:39;;;;;;;10.02;4.55;;;;;;;26.52;46.10;98974.56;4484905;32;33596;-66
2023/09/22 08:27:06;;;;;;;12.45;4.65;;;;;;;26.52;46.11;98969.09;4483376;32;33627;-68
2023/09/22 08:29:34;;;;;;;10.95;4.62;;;;;;;26.52;46.10;98969.09;4484951;32;34852;-67
2023/09/22 08:32:04;;;;;;;16.75;5.05;;;;;;;26.52;46.13;98966.38;4484834;32;33733;-67
2023/09/22 08:34:38;;;;;;;12.20;4.30;;;;;;;26.52;46.09;98972.66;4484856;32;33674;-66
2023/09/22 08:37:06;;;;;;;;;;;;;;;26.53;46.16;98976.22;4471279;32;34116;-66
2023/09/22 08:39:33;;;;;;;9.65;4.37;;;;;;;26.62;45.91;98974.63;4483618;32;34333;-68
2023/09/22 08:42:01;;;;;;;13.95;4.60;;;;;;;26.56;46.13;98971.03;4484628;32;33639;-66
2023/09/22 08:44:29;;;;;;;11.48;4.80;;;;;;;26.54;46.21;98970.50;4477727;32;33638;-65
2023/09/22 08:46:57;;;;;;;9.88;4.70;;;;;;;26.54;46.28;98970.50;4455540;32;33972;-66
2023/09/22 08:49:26;;;;;;;11.82;4.78;;;;;;;26.53;46.28;98974.31;4472301;32;34229;-66
2023/09/22 08:51:55;;;;;;;14.68;4.70;;;;;;;26.54;46.24;98973.22;4474340;32;34393;-65
2023/09/22 08:54:23;;;;;;;15.30;4.97;;;;;;;26.55;46.26;98969.41;4469582;32;34654;-65
2023/09/22 08:56:51;;;;;;;11.80;4.57;;;;;;;26.57;46.18;98975.41;4484511;32;33852;-65
2023/09/22 08:59:19;;;;;;;9.23;4.72;;;;;;;26.57;46.27;98974.59;4470447;32;34069;-65
2023/09/22 09:01:47;;;;;;;9.68;4.47;;;;;;;26.58;46.38;98978.97;4477387;32;33715;-65
2023/09/22 09:04:34;;;;;;;13.88;4.75;;;;;;;26.59;46.36;98973.25;4468900;32;33839;-65
2023/09/22 09:07:04;;;;;;;12.75;4.95;;;;;;;26.60;46.38;98969.41;4478936;32;33487;-65
2023/09/22 09:09:43;;;;;;;12.75;4.87;;;;;;;26.59;46.48;98956.00;4470052;32;34141;-65
2023/09/22 09:12:12;;;;;;;10.68;4.00;;;;;;;26.61;46.52;98957.37;4467440;32;33425;-65
2023/09/22 09:14:40;;;;;;;10.20;4.28;;;;;;;26.61;46.47;98949.16;4467783;32;33371;-65
2023/09/22 09:17:18;;;;;;;13.60;4.95;;;;;;;26.62;46.53;98952.72;4467587;32;33686;-65
2023/09/22 09:19:47;;;;;;;13.10;4.78;;;;;;;26.63;46.54;98954.41;4467385;32;33990;-66
2023/09/22 09:22:15;;;;;;;10.83;4.80;;;;;;;26.63;46.56;98952.47;4468827;32;33833;-66
2023/09/22 09:24:43;;;;;;;13.93;4.32;;;;;;;26.65;46.58;98944.00;4475941;32;34612;-66
2023/09/22 09:27:17;;;;;;;11.50;4.45;;;;;;;26.66;46.52;98948.38;4475883;32;33816;-66
2023/09/22 09:29:46;;;;;;;10.15;4.60;;;;;;;26.68;46.50;98946.19;4484679;32;34870;-66
2023/09/22 09:32:27;;;;;;;13.75;4.28;;;;;;;26.66;46.46;98949.19;4484228;32;34246;-66
2023/09/22 09:34:54;;;;;;;11.18;4.53;;;;;;;26.68;46.38;98944.28;4470042;32;33926;-66
2023/09/22 09:37:22;;;;;;;11.63;3.83;;;;;;;26.67;46.30;98936.31;4469945;32;34594;-66
2023/09/22 09:39:53;;;;;;;13.57;4.35;;;;;;;26.68;46.13;98940.72;4484158;32;35163;-66
2023/09/22 09:42:23;;;;;;;14.73;4.35;;;;;;;26.68;46.12;98936.06;4483453;32;33194;-66
2023/09/22 09:44:57;;;;;;;16.23;4.53;;;;;;;26.68;45.95;98933.34;4477939;32;34728;-66
2023/09/22 09:47:34;;;;;;;18.65;4.28;;;;;;;26.71;45.82;98932.78;4467504;32;34037;-66
2023/09/22 09:50:07;;;;;;;13.75;4.35;;;;;;;26.71;45.71;98924.56;4457938;32;34075;-65
2023/09/22 09:52:41;;;;;;;12.10;3.60;;;;;;;26.71;45.69;98921.00;4476780;31;33619;-66
2023/09/22 09:55:12;;;;;;;13.15;4.30;;;;;;;26.71;45.65;98927.31;4469882;32;33800;-65
2023/09/22 09:57:42;;;;;;;12.32;4.50;;;;;;;26.72;45.56;98914.47;4473098;31;34599;-66
2023/09/22 10:00:18;;;;;;;9.82;4.00;;;;;;;26.71;45.54;98919.09;4495004;31;33961;-66
2023/09/22 10:02:47;;;;;;;13.70;4.12;;;;;;;26.73;45.48;98913.38;4468549;31;33614;-66
2023/09/22 10:05:20;;;;;;;13.13;3.92;;;;;;;26.73;45.45;98910.63;4474862;31;34642;-66
2023/09/22 10:07:50;;;;;;;14.40;4.78;;;;;;;26.74;45.36;98917.75;4468571;31;34761;-66
2023/09/22 10:10:19;;;;;;;15.52;4.10;;;;;;;26.76;45.27;98914.72;4447563;31;33980;-66
2023/09/22 10:12:47;;;;;;;15.68;4.22;;;;;;;26.77;45.21;98906.28;4481961;32;33559;-66
2023/09/22 10:15:15;;;;;;;11.32;3.72;;;;;;;26.79;45.11;98909.53;4483024;32;33670;-66
2023/09/22 10:17:43;;;;;;;14.87;4.25;;;;;;;26.80;45.02;98905.72;4467223;32;34447;-66
2023/09/22 10:20:11;;;;;;;10.15;3.90;;;;;;;26.80;45.04;98894.75;4482775;32;33705;-66
2023/09/22 10:22:39;;;;;;;13.38;3.58;;;;;;;26.83;44.94;98896.16;4483944;32;33445;-66
2023/09/22 10:25:13;;;;;;;11.40;4.12;;;;;;;26.83;44.85;98899.72;4481795;32;34359;-66
2023/09/22 10:27:54;;;;;;;14.35;4.50;;;;;;;26.84;44.83;98893.13;4483965;32;33747;-66
2023/09/22 10:30:44;;;;;;;9.55;3.78;;;;;;;26.86;44.80;98892.84;4483676;32;33840;-65
2023/09/22 10:33:15;;;;;;;12.30;4.22;;;;;;;26.88;44.72;98894.25;4483923;32;33540;-65
2023/09/22 10:35:43;;;;;;;11.23;3.70;;;;;;;26.89;44.63;98895.06;4483556;32;33609;-66
2023/09/22 10:38:11;;;;;;;10.00;3.55;;;;;;;26.88;44.54;98888.75;4483578;32;33716;-66
2023/09/22 10:40:41;;;;;;;11.70;4.05;;;;;;;26.89;44.52;98882.19;4469642;32;32770;-65
2023/09/22 10:43:10;;;;;;;13.73;3.92;;;;;;;26.90;44.56;98885.75;4483392;32;34388;-66
2023/09/22 10:45:37;;;;;;;10.77;3.70;;;;;;;26.93;44.48;98888.78;4482657;32;33870;-66
2023/09/22 10:48:05;;;;;;;11.95;3.70;;;;;;;26.91;44.49;98882.75;4481770;32;32928;-65
2023/09/22 10:50:33;;;;;;;11.43;3.50;;;;;;;26.96;44.35;98879.22;4469553;32;33415;-66
2023/09/22 10:53:05;;;;;;;14.05;3.95;;;;;;;26.94;44.27;98879.47;4483611;32;33668;-66
2023/09/22 10:55:40;;;;;;;12.75;3.72;;;;;;;26.96;44.20;98881.94;4482074;32;33687;-66
2023/09/22 10:58:12;;;;;;;11.60;3.28;;;;;;;26.98;44.02;98874.25;4483724;32;34522;-66
2023/09/22 11:00:44;;;;;;;16.02;3.70;;;;;;;26.99;43.76;98878.63;4482114;32;34129;-66
2023/09/22 11:03:12;;;;;;;12.05;3.40;;;;;;;26.98;43.76;98870.72;4457966;32;33347;-65
2023/09/22 11:05:41;;;;;;;11.25;3.58;;;;;;;26.99;43.49;98875.91;4482346;32;34668;-66
2023/09/22 11:08:12;;;;;;;9.55;3.53;;;;;;;27.00;43.40;98869.34;4483276;32;34132;-66
2023/09/22 11:10:46;;;;;;;8.43;3.35;;;;;;;27.03;43.30;98874.28;4483535;32;34208;-66
2023/09/22 11:13:14;;;;;;;8.77;3.42;;;;;;;27.01;43.31;98875.66;4453476;32;33680;-66
2023/09/22 11:15:46;;;;;;;8.52;3.15;;;;;;;27.00;43.00;98866.63;4454084;32;33976;-66
2023/09/22 11:18:21;;;;;;;10.65;3.75;;;;;;;27.03;42.77;98871.53;4471120;32;33957;-66
2023/09/22 11:20:53;;;;;;;11.32;3.30;;;;;;;27.06;42.87;98871.00;4480657;32;33858;-66
2023/09/22 11:23:21;;;;;;;9.88;3.75;;;;;;;27.04;42.81;98864.94;4466033;32;33758;-66
2023/09/22 11:25:55;;;;;;;9.50;3.05;;;;;;;27.05;42.88;98868.53;4454033;32;34903;-66
2023/09/22 11:28:23;;;;;;;10.23;3.28;;;;;;;27.03;43.13;98859.75;4470316;32;33917;-66
2023/09/22 11:30:54;;;;;;;11.70;3.55;;;;;;;27.06;42.95;98860.03;4482981;32;33693;-66
2023/09/22 11:33:22;;;;;;;11.48;3.20;;;;;;;27.04;42.70;98859.47;4443339;32;34542;-65
2023/09/22 11:35:53;;;;;;;13.50;3.97;;;;;;;27.06;42.28;98856.47;4468952;32;34388;-66
2023/09/22 11:38:22;;;;;;;10.38;3.45;;;;;;;27.08;42.08;98854.28;4483250;32;33872;-66